KBOK/BOK METAR and TAF weather

Enter ICAO airport designator
Station Type Date Time Source
KBOK METAR 2019/02/20 23:25 UTC NOAA

KBOK 202325Z AUTO 28004KT 10SM SCT014 BKN042 06/04 A2990 RMK AO2 RAE14 P0000


Station Type Date Time Source
KBOK Decoded METAR 2019/02/20 23:25 UTC NOAA

Brookings, Brookings Airport, OR, United States (KBOK) 42-04-28N 124-17-24W
Feb 20, 2019 - 06:25 PM EST / 2019.02.20 2325 UTC
Wind: from the W (280 degrees) at 5 MPH (4 KT):0
Visibility: 10 mile(s):0
Sky conditions: mostly cloudy
Precipitation last hour: A trace
Temperature: 42 F (6 C)
Dew Point: 39 F (4 C)
Relative Humidity: 86%
Pressure (altimeter): 29.9 in. Hg (1012 hPa)
ob: KBOK 202325Z AUTO 28004KT 10SM SCT014 BKN042 06/04 A2990 RMK AO2 RAE14 P0000
cycle: 23

Station Type Date Time Source
KBOK TAF UTC NOAA

Error!


Example: see airport list